Helga — D5BK2 — position and weather

sailwx.info

Track history (hours):
 
Tides and Currents Weather Stations Pressure Air Temp Water Temp Dewpoint Dewpoint Depression Visibility Wind Speed Wind Dir Waves Ship Positions

Helga

Last reported at 2018-Jun-20 14:00 UTC. Time now 2018-Jun-21 12:16 UTC.
Position N 36°36' W 000°47'.

Length 169 m; draft 9.5 m.

Type: Cargo ship. MMSI: 636092390.

Date/timePositionNaut miles runAvg speedWind from/ knotsBaromVisibWave heightAir tempDewpointWater temp
2018-Jun-20 14:00N 36°36' W 000°47'712.5
2018-Jun-20 13:29N 36°37' W 000°39'4112.3
2018-Jun-20 10:11N 36°43' E 000°11'212.2
2018-Jun-20 10:01N 36°44' E 000°13'611.9
2018-Jun-20 09:28N 36°45' E 000°21'2411.2
2018-Jun-20 07:21N 36°48' E 000°50'811.4
2018-Jun-20 06:36N 36°49' E 001°01'111.7
2018-Jun-20 06:29N 36°49' E 001°03'1811.8
2018-Jun-20 04:56N 36°52' E 001°25'  
Track history (hours):
 
Tides and Currents Weather Stations Pressure Air Temp Water Temp Dewpoint Dewpoint Depression Visibility Wind Speed Wind Dir Waves Ship Positions

Helga

Last reported at 2018-Jun-20 14:00 UTC. Time now 2018-Jun-21 12:16 UTC.
Position N 36°36' W 000°47'.

Length 169 m; draft 9.5 m.

Type: Cargo ship. MMSI: 636092390.

Date/timePositionNaut miles runAvg speedWind from/ knotsBaromVisibWave heightAir tempDewpointWater temp
2018-Jun-20 14:00N 36°36' W 000°47'712.5
2018-Jun-20 13:29N 36°37' W 000°39'4112.3
2018-Jun-20 10:11N 36°43' E 000°11'212.2
2018-Jun-20 10:01N 36°44' E 000°13'611.9
2018-Jun-20 09:28N 36°45' E 000°21'2411.2
2018-Jun-20 07:21N 36°48' E 000°50'811.4
2018-Jun-20 06:36N 36°49' E 001°01'111.7
2018-Jun-20 06:29N 36°49' E 001°03'1811.8
2018-Jun-20 04:56N 36°52' E 001°25'  

Dump ship's entire track history